Time;durP1;ratioP1;P1;durP2;ratioP2;P2;SDS_P1;SDS_P2;PMS_P1;PMS_P2;Temp;Humidity;BMP_temperature;BMP_pressure;BME280_temperature;BME280_humidity;BME280_pressure;Samples;Min_cycle;Max_cycle;Signal;HPM_P1;HPM_P2
2022/12/16 00:00:15;;;;;;;1.80;1.70;;;14.10;61.60;;;;;;4988339;28;20045;-14
2022/12/16 00:02:41;;;;;;;1.85;1.75;;;14.10;61.60;;;;;;4988691;28;20089;-16
2022/12/16 00:05:07;;;;;;;1.75;1.65;;;14.10;61.60;;;;;;4988546;28;20042;-14
2022/12/16 00:07:33;;;;;;;1.60;1.50;;;14.10;61.60;;;;;;4986245;28;20089;-14
2022/12/16 00:09:58;;;;;;;1.80;1.70;;;14.10;61.60;;;;;;4987758;28;20535;-16
2022/12/16 00:12:24;;;;;;;3.40;1.90;;;14.10;61.60;;;;;;4984651;28;20038;-13
2022/12/16 00:14:49;;;;;;;1.52;1.42;;;14.10;61.60;;;;;;4989398;28;20038;-14
2022/12/16 00:17:15;;;;;;;1.63;1.52;;;14.00;61.50;;;;;;4984069;28;20550;-18
2022/12/16 00:19:40;;;;;;;1.42;1.33;;;14.10;61.50;;;;;;4985813;28;20093;-14
2022/12/16 00:22:06;;;;;;;1.60;1.50;;;14.10;61.40;;;;;;4986680;28;20423;-15
2022/12/16 00:24:32;;;;;;;2.03;1.80;;;14.10;61.50;;;;;;4986645;28;20614;-15
2022/12/16 00:26:57;;;;;;;1.67;1.58;;;14.00;61.40;;;;;;4984314;28;20057;-15
2022/12/16 00:29:23;;;;;;;1.42;1.33;;;14.10;61.50;;;;;;4984352;28;20116;-14
2022/12/16 00:31:48;;;;;;;1.33;1.33;;;14.00;61.40;;;;;;4989539;28;20061;-15
2022/12/16 00:34:15;;;;;;;1.90;1.40;;;14.00;61.40;;;;;;4986976;28;20665;-14
2022/12/16 00:36:40;;;;;;;1.80;1.40;;;14.00;61.40;;;;;;4984976;28;20656;-14
2022/12/16 00:39:06;;;;;;;1.88;1.77;;;14.00;61.40;;;;;;4986039;28;20169;-14
2022/12/16 00:41:32;;;;;;;1.30;1.30;;;14.00;61.30;;;;;;4987904;28;20045;-15
2022/12/16 00:43:57;;;;;;;1.55;1.45;;;14.00;61.30;;;;;;4985041;28;20054;-14
2022/12/16 00:46:23;;;;;;;1.60;1.50;;;14.00;61.30;;;;;;4986742;28;20047;-15
2022/12/16 00:48:48;;;;;;;1.40;1.30;;;14.00;61.30;;;;;;4987588;28;20078;-15
2022/12/16 00:51:14;;;;;;;1.27;1.27;;;14.10;61.20;;;;;;4987566;28;20049;-14
2022/12/16 00:53:39;;;;;;;1.33;1.33;;;14.00;61.20;;;;;;4985546;28;20050;-15
2022/12/16 00:56:09;;;;;;;1.15;1.15;;;14.00;61.20;;;;;;4987185;28;20041;-16
2022/12/16 00:58:35;;;;;;;1.20;1.10;;;14.00;61.20;;;;;;4988278;28;20110;-14
2022/12/16 01:01:01;;;;;;;1.25;1.20;;;14.00;61.20;;;;;;4991009;28;20034;-15
2022/12/16 01:03:26;;;;;;;0.93;0.90;;;14.00;61.10;;;;;;4986499;28;20069;-24
2022/12/16 01:05:52;;;;;;;1.23;1.13;;;14.00;61.20;;;;;;4990857;28;20046;-16
2022/12/16 01:08:17;;;;;;;1.30;1.20;;;14.00;61.20;;;;;;4988352;28;20519;-15
2022/12/16 01:10:52;;;;;;;1.50;1.40;;;14.00;61.10;;;;;;4989765;28;20078;-14
2022/12/16 01:13:17;;;;;;;;;;;14.00;61.10;;;;;;4993689;28;20065;-13
2022/12/16 01:15:43;;;;;;;1.40;1.30;;;13.90;61.10;;;;;;4989719;28;20383;-13
2022/12/16 01:18:09;;;;;;;1.00;1.00;;;14.00;61.00;;;;;;4989792;28;20419;-15
2022/12/16 01:20:35;;;;;;;1.40;1.30;;;14.00;61.10;;;;;;4989407;28;21062;-14
2022/12/16 01:23:00;;;;;;;1.30;1.20;;;13.90;61.10;;;;;;4988402;28;20419;-15
2022/12/16 01:25:26;;;;;;;1.45;1.35;;;13.90;61.10;;;;;;4989311;28;20094;-14
2022/12/16 01:27:52;;;;;;;1.15;1.13;;;13.90;61.00;;;;;;4990735;28;20054;-14
2022/12/16 01:30:17;;;;;;;1.17;1.17;;;13.90;61.00;;;;;;4989468;28;20050;-16
2022/12/16 01:32:43;;;;;;;1.20;1.20;;;14.00;61.00;;;;;;4986685;28;20058;-15
2022/12/16 01:35:09;;;;;;;1.27;1.27;;;14.00;60.90;;;;;;4990457;28;20101;-17
2022/12/16 01:37:35;;;;;;;1.10;1.10;;;13.90;60.80;;;;;;4990615;28;20035;-13
2022/12/16 01:40:00;;;;;;;1.20;1.15;;;13.90;60.80;;;;;;4989889;28;20070;-15
2022/12/16 01:42:31;;;;;;;1.00;1.00;;;13.90;60.90;;;;;;4988790;28;20081;-15
2022/12/16 01:44:57;;;;;;;1.73;1.38;;;14.00;60.80;;;;;;4987737;28;20536;-15
2022/12/16 01:47:27;;;;;;;1.00;1.00;;;14.00;60.60;;;;;;4988182;28;20050;-14
2022/12/16 01:50:03;;;;;;;1.38;1.30;;;14.00;60.70;;;;;;4996523;28;20057;-19
2022/12/16 01:52:32;;;;;;;1.10;1.10;;;14.00;60.70;;;;;;4981816;28;20042;-15
2022/12/16 01:55:01;;;;;;;0.95;0.95;;;14.00;60.60;;;;;;4997250;28;20119;-14
2022/12/16 01:57:49;;;;;;;1.10;1.10;;;14.00;60.60;;;;;;4985956;28;20428;-14
2022/12/16 02:00:15;;;;;;;1.27;1.25;;;14.00;60.40;;;;;;4987263;28;20053;-14
2022/12/16 02:02:43;;;;;;;1.15;1.15;;;14.00;60.40;;;;;;4986459;28;20050;-14
2022/12/16 02:05:21;;;;;;;0.98;0.93;;;14.00;60.50;;;;;;4990479;28;20042;-14
2022/12/16 02:08:01;;;;;;;0.85;0.80;;;14.00;60.50;;;;;;4987800;28;20053;-16
2022/12/16 02:10:32;;;;;;;1.15;1.05;;;14.00;60.40;;;;;;4984042;28;20038;-17
2022/12/16 02:13:44;;;;;;;1.15;1.15;;;14.00;60.40;;;;;;4989669;28;20121;-14
2022/12/16 02:16:54;;;;;;;1.20;1.10;;;14.00;60.20;;;;;;4985670;28;20034;-15
2022/12/16 02:19:29;;;;;;;1.25;1.20;;;14.00;60.10;;;;;;4984832;28;20085;-14
2022/12/16 02:22:32;;;;;;;1.20;1.13;;;14.00;60.10;;;;;;4987881;28;20097;-15
2022/12/16 02:25:16;;;;;;;1.10;1.10;;;14.00;60.10;;;;;;4981496;28;20054;-15
2022/12/16 02:27:50;;;;;;;1.10;1.00;;;14.00;60.10;;;;;;4989023;28;20125;-14
2022/12/16 02:30:49;;;;;;;1.10;1.10;;;14.00;60.20;;;;;;4983900;28;20511;-15
2022/12/16 02:33:18;;;;;;;0.90;0.90;;;14.00;60.20;;;;;;4991826;28;20515;-14
2022/12/16 02:35:49;;;;;;;1.00;1.00;;;14.00;60.10;;;;;;4988919;28;20117;-14
2022/12/16 02:38:25;;;;;;;1.00;1.00;;;14.00;60.20;;;;;;4988676;28;20050;-14
2022/12/16 02:41:01;;;;;;;0.80;0.80;;;14.00;60.20;;;;;;4990325;28;20050;-14
2022/12/16 02:43:32;;;;;;;0.90;0.90;;;14.00;60.20;;;;;;4987679;28;20074;-14
2022/12/16 02:45:57;;;;;;;0.80;0.80;;;14.00;60.10;;;;;;5013713;28;20086;-14
2022/12/16 02:48:23;;;;;;;0.82;0.82;;;13.90;60.20;;;;;;4986285;28;20042;-21
2022/12/16 02:50:49;;;;;;;0.82;0.82;;;14.00;60.10;;;;;;4984398;28;20061;-15
2022/12/16 02:53:15;;;;;;;1.00;1.00;;;14.00;61.00;;;;;;4987902;28;20038;-15
2022/12/16 02:55:53;;;;;;;0.80;0.80;;;14.00;60.00;;;;;;4985812;28;20046;-13
2022/12/16 02:58:35;;;;;;;1.30;0.95;;;13.90;60.00;;;;;;4989489;28;20046;-14
2022/12/16 03:01:07;;;;;;;0.95;0.95;;;13.90;60.00;;;;;;4981734;28;20058;-14
2022/12/16 03:03:59;;;;;;;0.75;0.75;;;13.90;60.00;;;;;;4988193;28;20046;-14
2022/12/16 03:06:25;;;;;;;0.95;0.95;;;13.90;60.10;;;;;;4986114;28;20043;-21
2022/12/16 03:08:53;;;;;;;0.93;0.90;;;13.90;60.00;;;;;;4987783;28;20430;-15
2022/12/16 03:11:19;;;;;;;0.85;0.70;;;13.90;60.00;;;;;;4994901;28;20054;-15
2022/12/16 03:13:46;;;;;;;1.10;1.02;;;13.90;59.90;;;;;;4988278;28;20046;-20
2022/12/16 03:16:13;;;;;;;0.90;0.90;;;13.90;59.90;;;;;;4984566;28;22101;-15
2022/12/16 03:18:41;;;;;;;0.93;0.93;;;13.90;59.90;;;;;;4989090;28;20058;-16
2022/12/16 03:21:07;;;;;;;0.80;0.80;;;13.90;60.00;;;;;;4984361;28;20050;-14
2022/12/16 03:24:04;;;;;;;1.00;0.90;;;13.90;59.90;;;;;;4986159;28;20185;-15
2022/12/16 03:26:33;;;;;;;0.80;0.80;;;13.90;59.90;;;;;;4985723;28;20034;-14
2022/12/16 03:29:08;;;;;;;0.98;0.98;;;13.90;59.90;;;;;;4988026;28;20054;-16
2022/12/16 03:31:51;;;;;;;0.70;0.70;;;13.90;60.00;;;;;;4985978;28;20569;-16
2022/12/16 03:34:25;;;;;;;1.65;0.80;;;13.90;60.00;;;;;;4988130;28;20041;-16
2022/12/16 03:36:54;;;;;;;0.98;0.98;;;13.90;59.80;;;;;;4986971;28;20105;-14
2022/12/16 03:39:20;;;;;;;0.70;0.70;;;13.90;59.80;;;;;;4984349;28;20101;-14
2022/12/16 03:41:46;;;;;;;0.93;0.93;;;13.90;59.80;;;;;;4986126;28;20089;-15
2022/12/16 03:44:12;;;;;;;0.63;0.63;;;13.90;59.70;;;;;;4986605;28;20058;-14
2022/12/16 03:46:37;;;;;;;0.80;0.80;;;13.90;59.80;;;;;;4985762;28;20049;-14
2022/12/16 03:49:03;;;;;;;0.90;0.90;;;13.90;59.80;;;;;;5013905;28;20042;-14
2022/12/16 03:51:28;;;;;;;0.90;0.90;;;13.90;59.80;;;;;;4989295;28;20081;-15
2022/12/16 03:53:54;;;;;;;1.00;1.00;;;13.90;59.80;;;;;;5007034;28;20554;-18
2022/12/16 03:56:19;;;;;;;1.00;0.90;;;13.90;59.80;;;;;;4988593;28;20046;-15
2022/12/16 03:58:45;;;;;;;0.70;0.70;;;13.90;59.70;;;;;;4986240;28;20050;-15
2022/12/16 04:01:11;;;;;;;0.85;0.85;;;13.90;59.80;;;;;;4994790;28;20046;-14
2022/12/16 04:03:37;;;;;;;0.80;0.80;;;13.90;59.70;;;;;;4988153;28;20276;-15
2022/12/16 04:06:02;;;;;;;1.02;0.88;;;13.90;59.60;;;;;;4991686;28;20054;-14
2022/12/16 04:08:28;;;;;;;0.90;0.90;;;13.90;59.60;;;;;;4988036;28;20034;-16
2022/12/16 04:24:48;;;;;;;0.70;0.70;;;13.90;59.50;;;;;;4980487;28;20484;-14
2022/12/16 04:27:28;;;;;;;0.60;0.60;;;13.90;59.50;;;;;;4991342;28;20133;-14
